Archival Weather

Republic

Farmingdale, New York (KFRG)

Report from: Monday, February 19, 2024 8:53 AM EST
Current time: Monday, June 24, 2024 5:20 AM EDT

Current weather – Weather history – Daily summaries
Weather forecast

Temperature2.2°C (36.0°F)
Wind chill-2.2°C (28.0°F)
Dew point-7.8°C (18.0°F)
Winds 10 kts (5.1 m/s, 11.5 mph) Northwest (310°)
Wind gusts 22 kts (11.3 m/s, 25.3 mph)
Visibility10 mi. (16.1 km)
Clouds Sky clear
Altimeter30.12 in.Hg (1020 mB)
Relative humidity48 %
Density altitude-1,726 ft. (-526 m)
Sea-level pressure102.0 kPa (1020 mB, 30.12 in.Hg)
Remarks Automated weather observing station without precipitation discriminator
Flight conditions Visual Meteorological Conditions
Raw dataKFRG 191353Z 31010G22KT 10SM CLR 02/M08 A3012 RMK AO1 SLP199 T00221078
An error has occurred. This application may no longer respond until reloaded. Reload 🗙